sensor_id;sensor_type;location;lat;lon;timestamp;P1;durP1;ratioP1;P2;durP2;ratioP2
55461;SDS011;41327;45.102;20.624;2023-01-19T00:00:53;7.80;;;2.95;;
55461;SDS011;41327;45.102;20.624;2023-01-19T00:03:20;4.78;;;2.65;;
55461;SDS011;41327;45.102;20.624;2023-01-19T00:05:46;5.40;;;2.45;;
55461;SDS011;41327;45.102;20.624;2023-01-19T00:08:12;11.25;;;3.88;;
55461;SDS011;41327;45.102;20.624;2023-01-19T00:10:45;8.95;;;3.08;;
55461;SDS011;41327;45.102;20.624;2023-01-19T00:13:15;7.68;;;3.28;;
55461;SDS011;41327;45.102;20.624;2023-01-19T00:15:41;7.63;;;3.33;;
55461;SDS011;41327;45.102;20.624;2023-01-19T00:18:06;13.70;;;3.30;;
55461;SDS011;41327;45.102;20.624;2023-01-19T00:20:32;10.48;;;3.92;;
55461;SDS011;41327;45.102;20.624;2023-01-19T00:22:59;13.15;;;3.88;;
55461;SDS011;41327;45.102;20.624;2023-01-19T00:25:25;7.90;;;4.00;;
55461;SDS011;41327;45.102;20.624;2023-01-19T00:27:50;15.77;;;3.72;;
55461;SDS011;41327;45.102;20.624;2023-01-19T00:30:16;12.90;;;4.00;;
55461;SDS011;41327;45.102;20.624;2023-01-19T00:32:41;14.57;;;4.93;;
55461;SDS011;41327;45.102;20.624;2023-01-19T00:35:07;10.73;;;5.00;;
55461;SDS011;41327;45.102;20.624;2023-01-19T00:37:32;9.05;;;4.65;;
55461;SDS011;41327;45.102;20.624;2023-01-19T00:39:58;11.93;;;5.22;;
55461;SDS011;41327;45.102;20.624;2023-01-19T00:42:23;13.60;;;6.13;;
55461;SDS011;41327;45.102;20.624;2023-01-19T00:45:07;14.25;;;5.97;;
55461;SDS011;41327;45.102;20.624;2023-01-19T00:48:06;12.30;;;4.95;;
55461;SDS011;41327;45.102;20.624;2023-01-19T00:50:31;11.50;;;5.82;;
55461;SDS011;41327;45.102;20.624;2023-01-19T00:52:58;17.65;;;5.32;;
55461;SDS011;41327;45.102;20.624;2023-01-19T00:55:24;12.40;;;5.18;;
55461;SDS011;41327;45.102;20.624;2023-01-19T00:57:51;11.23;;;5.40;;
55461;SDS011;41327;45.102;20.624;2023-01-19T01:00:18;17.58;;;6.05;;
55461;SDS011;41327;45.102;20.624;2023-01-19T01:02:44;10.50;;;5.32;;
55461;SDS011;41327;45.102;20.624;2023-01-19T01:05:10;12.85;;;5.47;;
55461;SDS011;41327;45.102;20.624;2023-01-19T01:07:36;15.35;;;5.57;;
55461;SDS011;41327;45.102;20.624;2023-01-19T01:10:08;19.20;;;6.15;;
55461;SDS011;41327;45.102;20.624;2023-01-19T01:12:54;13.20;;;5.60;;
55461;SDS011;41327;45.102;20.624;2023-01-19T01:15:19;14.27;;;5.25;;
55461;SDS011;41327;45.102;20.624;2023-01-19T01:17:46;11.75;;;4.32;;
55461;SDS011;41327;45.102;20.624;2023-01-19T01:20:16;8.88;;;4.53;;
55461;SDS011;41327;45.102;20.624;2023-01-19T01:22:45;13.88;;;4.47;;
55461;SDS011;41327;45.102;20.624;2023-01-19T01:25:12;16.00;;;5.32;;
55461;SDS011;41327;45.102;20.624;2023-01-19T01:27:38;13.95;;;4.95;;
55461;SDS011;41327;45.102;20.624;2023-01-19T01:30:04;11.45;;;5.72;;
55461;SDS011;41327;45.102;20.624;2023-01-19T01:32:30;10.80;;;4.22;;
55461;SDS011;41327;45.102;20.624;2023-01-19T01:34:56;10.27;;;4.82;;
55461;SDS011;41327;45.102;20.624;2023-01-19T01:37:21;14.38;;;6.55;;
55461;SDS011;41327;45.102;20.624;2023-01-19T01:39:47;21.27;;;7.00;;
55461;SDS011;41327;45.102;20.624;2023-01-19T01:42:28;20.35;;;6.65;;
55461;SDS011;41327;45.102;20.624;2023-01-19T01:44:55;12.68;;;6.05;;
55461;SDS011;41327;45.102;20.624;2023-01-19T01:50:28;11.90;;;6.00;;
55461;SDS011;41327;45.102;20.624;2023-01-19T01:52:58;13.00;;;5.53;;
55461;SDS011;41327;45.102;20.624;2023-01-19T01:55:24;11.52;;;5.07;;
55461;SDS011;41327;45.102;20.624;2023-01-19T01:57:53;10.02;;;3.97;;
55461;SDS011;41327;45.102;20.624;2023-01-19T02:00:21;9.90;;;3.97;;
55461;SDS011;41327;45.102;20.624;2023-01-19T02:02:48;6.93;;;3.30;;
55461;SDS011;41327;45.102;20.624;2023-01-19T02:05:28;7.75;;;4.05;;
55461;SDS011;41327;45.102;20.624;2023-01-19T02:10:40;11.57;;;3.28;;
55461;SDS011;41327;45.102;20.624;2023-01-19T02:13:25;7.75;;;3.03;;
55461;SDS011;41327;45.102;20.624;2023-01-19T02:15:52;7.68;;;2.85;;
55461;SDS011;41327;45.102;20.624;2023-01-19T02:18:20;9.10;;;2.72;;
55461;SDS011;41327;45.102;20.624;2023-01-19T02:20:58;11.05;;;2.65;;
55461;SDS011;41327;45.102;20.624;2023-01-19T02:26:02;8.15;;;2.63;;
55461;SDS011;41327;45.102;20.624;2023-01-19T02:28:28;9.25;;;2.67;;
55461;SDS011;41327;45.102;20.624;2023-01-19T02:30:54;6.85;;;2.00;;
55461;SDS011;41327;45.102;20.624;2023-01-19T02:33:20;8.57;;;2.20;;
55461;SDS011;41327;45.102;20.624;2023-01-19T02:35:45;6.63;;;2.08;;
55461;SDS011;41327;45.102;20.624;2023-01-19T02:38:11;6.85;;;2.72;;
55461;SDS011;41327;45.102;20.624;2023-01-19T02:40:38;8.77;;;2.28;;
55461;SDS011;41327;45.102;20.624;2023-01-19T02:43:05;7.13;;;3.03;;
55461;SDS011;41327;45.102;20.624;2023-01-19T02:45:32;9.38;;;2.65;;
55461;SDS011;41327;45.102;20.624;2023-01-19T02:47:58;5.47;;;2.30;;
55461;SDS011;41327;45.102;20.624;2023-01-19T02:53:27;6.25;;;1.90;;
55461;SDS011;41327;45.102;20.624;2023-01-19T02:59:18;8.38;;;2.17;;
55461;SDS011;41327;45.102;20.624;2023-01-19T03:21:45;4.78;;;1.73;;
55461;SDS011;41327;45.102;20.624;2023-01-19T03:24:12;5.07;;;1.50;;
55461;SDS011;41327;45.102;20.624;2023-01-19T03:26:51;8.52;;;1.25;;
55461;SDS011;41327;45.102;20.624;2023-01-19T03:29:21;4.78;;;1.17;;
55461;SDS011;41327;45.102;20.624;2023-01-19T03:31:49;5.65;;;1.23;;
55461;SDS011;41327;45.102;20.624;2023-01-19T03:34:15;4.15;;;1.25;;
55461;SDS011;41327;45.102;20.624;2023-01-19T03:36:42;7.13;;;2.25;;
55461;SDS011;41327;45.102;20.624;2023-01-19T03:39:10;4.20;;;1.30;;
55461;SDS011;41327;45.102;20.624;2023-01-19T03:41:36;2.92;;;1.10;;
55461;SDS011;41327;45.102;20.624;2023-01-19T03:44:03;4.82;;;1.30;;
55461;SDS011;41327;45.102;20.624;2023-01-19T03:46:30;3.15;;;0.80;;
55461;SDS011;41327;45.102;20.624;2023-01-19T03:48:56;3.00;;;1.23;;
55461;SDS011;41327;45.102;20.624;2023-01-19T03:51:22;3.20;;;0.90;;
55461;SDS011;41327;45.102;20.624;2023-01-19T03:53:48;2.50;;;0.70;;
55461;SDS011;41327;45.102;20.624;2023-01-19T03:56:18;1.50;;;0.50;;
55461;SDS011;41327;45.102;20.624;2023-01-19T03:58:45;1.05;;;0.70;;
55461;SDS011;41327;45.102;20.624;2023-01-19T04:01:11;4.05;;;0.70;;
55461;SDS011;41327;45.102;20.624;2023-01-19T04:03:40;3.03;;;0.75;;
55461;SDS011;41327;45.102;20.624;2023-01-19T04:06:07;4.18;;;0.77;;
55461;SDS011;41327;45.102;20.624;2023-01-19T04:08:33;2.33;;;0.90;;
55461;SDS011;41327;45.102;20.624;2023-01-19T04:10:58;0.68;;;0.60;;
55461;SDS011;41327;45.102;20.624;2023-01-19T04:13:24;2.45;;;0.60;;
55461;SDS011;41327;45.102;20.624;2023-01-19T04:15:52;3.60;;;0.70;;
55461;SDS011;41327;45.102;20.624;2023-01-19T04:18:17;1.65;;;0.60;;
55461;SDS011;41327;45.102;20.624;2023-01-19T04:20:44;2.25;;;0.70;;
55461;SDS011;41327;45.102;20.624;2023-01-19T04:23:09;3.60;;;0.82;;
55461;SDS011;41327;45.102;20.624;2023-01-19T04:25:34;0.90;;;0.68;;
55461;SDS011;41327;45.102;20.624;2023-01-19T04:28:00;2.97;;;0.85;;
55461;SDS011;41327;45.102;20.624;2023-01-19T04:30:26;4.07;;;1.10;;
55461;SDS011;41327;45.102;20.624;2023-01-19T04:32:52;1.05;;;0.60;;
55461;SDS011;41327;45.102;20.624;2023-01-19T04:35:19;1.50;;;0.88;;
55461;SDS011;41327;45.102;20.624;2023-01-19T04:37:46;1.25;;;0.65;;
55461;SDS011;41327;45.102;20.624;2023-01-19T04:40:12;1.80;;;1.02;;
55461;SDS011;41327;45.102;20.624;2023-01-19T04:42:41;1.52;;;0.60;;
55461;SDS011;41327;45.102;20.624;2023-01-19T04:45:08;0.73;;;0.43;;
55461;SDS011;41327;45.102;20.624;2023-01-19T04:47:33;1.95;;;0.50;;
55461;SDS011;41327;45.102;20.624;2023-01-19T04:49:59;1.55;;;0.60;;
55461;SDS011;41327;45.102;20.624;2023-01-19T04:52:25;1.65;;;0.57;;
55461;SDS011;41327;45.102;20.624;2023-01-19T04:55:02;2.05;;;0.50;;
55461;SDS011;41327;45.102;20.624;2023-01-19T04:57:33;2.05;;;0.63;;
55461;SDS011;41327;45.102;20.624;2023-01-19T04:59:59;1.98;;;1.25;;
55461;SDS011;41327;45.102;20.624;2023-01-19T05:02:24;2.33;;;1.00;;
55461;SDS011;41327;45.102;20.624;2023-01-19T05:04:50;1.30;;;0.80;;
55461;SDS011;41327;45.102;20.624;2023-01-19T05:07:16;1.52;;;1.10;;
55461;SDS011;41327;45.102;20.624;2023-01-19T05:09:42;5.28;;;3.80;;
55461;SDS011;41327;45.102;20.624;2023-01-19T05:12:08;2.97;;;1.00;;
55461;SDS011;41327;45.102;20.624;2023-01-19T05:14:34;1.73;;;0.60;;
55461;SDS011;41327;45.102;20.624;2023-01-19T05:16:59;0.65;;;0.40;;
55461;SDS011;41327;45.102;20.624;2023-01-19T05:19:26;2.25;;;0.20;;
55461;SDS011;41327;45.102;20.624;2023-01-19T05:21:52;0.40;;;0.30;;
55461;SDS011;41327;45.102;20.624;2023-01-19T05:24:18;0.85;;;0.47;;
55461;SDS011;41327;45.102;20.624;2023-01-19T05:26:44;0.45;;;0.35;;
55461;SDS011;41327;45.102;20.624;2023-01-19T05:29:09;1.13;;;0.40;;
55461;SDS011;41327;45.102;20.624;2023-01-19T05:31:35;0.50;;;0.30;;
55461;SDS011;41327;45.102;20.624;2023-01-19T05:34:01;1.00;;;0.60;;
55461;SDS011;41327;45.102;20.624;2023-01-19T05:36:27;1.05;;;0.80;;
55461;SDS011;41327;45.102;20.624;2023-01-19T05:38:53;0.50;;;0.45;;
55461;SDS011;41327;45.102;20.624;2023-01-19T05:44:40;1.35;;;1.05;;
55461;SDS011;41327;45.102;20.624;2023-01-19T05:47:06;1.52;;;0.80;;
55461;SDS011;41327;45.102;20.624;2023-01-19T05:52:34;15.63;;;4.78;;
55461;SDS011;41327;45.102;20.624;2023-01-19T05:54:59;14.80;;;6.25;;
55461;SDS011;41327;45.102;20.624;2023-01-19T05:57:25;11.13;;;4.13;;
55461;SDS011;41327;45.102;20.624;2023-01-19T05:59:50;14.15;;;6.95;;
55461;SDS011;41327;45.102;20.624;2023-01-19T06:02:16;8.75;;;4.47;;
55461;SDS011;41327;45.102;20.624;2023-01-19T06:04:51;13.93;;;8.05;;
55461;SDS011;41327;45.102;20.624;2023-01-19T06:07:17;13.43;;;7.80;;
55461;SDS011;41327;45.102;20.624;2023-01-19T06:09:42;18.17;;;11.50;;
55461;SDS011;41327;45.102;20.624;2023-01-19T06:12:08;22.17;;;12.07;;
55461;SDS011;41327;45.102;20.624;2023-01-19T06:14:33;19.95;;;10.90;;
55461;SDS011;41327;45.102;20.624;2023-01-19T06:17:01;17.35;;;9.80;;
55461;SDS011;41327;45.102;20.624;2023-01-19T06:19:26;13.07;;;7.43;;
55461;SDS011;41327;45.102;20.624;2023-01-19T06:21:52;18.27;;;8.95;;
55461;SDS011;41327;45.102;20.624;2023-01-19T06:24:17;3.60;;;2.05;;
55461;SDS011;41327;45.102;20.624;2023-01-19T06:26:43;2.40;;;0.50;;
55461;SDS011;41327;45.102;20.624;2023-01-19T06:29:09;2.17;;;0.50;;
55461;SDS011;41327;45.102;20.624;2023-01-19T06:31:36;0.80;;;0.57;;
55461;SDS011;41327;45.102;20.624;2023-01-19T06:34:01;0.60;;;0.40;;
55461;SDS011;41327;45.102;20.624;2023-01-19T06:36:27;1.35;;;0.80;;
55461;SDS011;41327;45.102;20.624;2023-01-19T06:38:52;1.10;;;0.75;;
55461;SDS011;41327;45.102;20.624;2023-01-19T06:41:18;0.90;;;0.40;;
55461;SDS011;41327;45.102;20.624;2023-01-19T06:43:43;2.15;;;0.90;;
55461;SDS011;41327;45.102;20.624;2023-01-19T06:46:09;4.50;;;2.65;;
55461;SDS011;41327;45.102;20.624;2023-01-19T06:48:34;11.80;;;5.80;;
55461;SDS011;41327;45.102;20.624;2023-01-19T06:51:00;7.80;;;3.90;;
55461;SDS011;41327;45.102;20.624;2023-01-19T06:53:26;4.95;;;3.53;;
55461;SDS011;41327;45.102;20.624;2023-01-19T06:55:53;1.73;;;0.88;;
55461;SDS011;41327;45.102;20.624;2023-01-19T06:58:22;1.48;;;1.10;;
55461;SDS011;41327;45.102;20.624;2023-01-19T07:00:48;2.80;;;2.10;;
55461;SDS011;41327;45.102;20.624;2023-01-19T07:03:17;8.02;;;4.63;;
55461;SDS011;41327;45.102;20.624;2023-01-19T07:05:43;22.02;;;13.57;;
55461;SDS011;41327;45.102;20.624;2023-01-19T07:08:09;4.10;;;2.47;;
55461;SDS011;41327;45.102;20.624;2023-01-19T07:10:34;7.13;;;3.25;;
55461;SDS011;41327;45.102;20.624;2023-01-19T07:13:00;9.43;;;4.00;;
55461;SDS011;41327;45.102;20.624;2023-01-19T07:15:26;9.63;;;5.32;;
55461;SDS011;41327;45.102;20.624;2023-01-19T07:17:51;6.03;;;1.90;;
55461;SDS011;41327;45.102;20.624;2023-01-19T07:20:17;2.97;;;1.50;;
55461;SDS011;41327;45.102;20.624;2023-01-19T07:22:43;3.80;;;2.22;;
55461;SDS011;41327;45.102;20.624;2023-01-19T07:25:10;4.05;;;3.08;;
55461;SDS011;41327;45.102;20.624;2023-01-19T07:27:37;2.67;;;1.15;;
55461;SDS011;41327;45.102;20.624;2023-01-19T07:30:02;1.15;;;0.90;;
55461;SDS011;41327;45.102;20.624;2023-01-19T07:32:28;1.40;;;0.85;;
55461;SDS011;41327;45.102;20.624;2023-01-19T07:34:54;1.08;;;0.70;;
55461;SDS011;41327;45.102;20.624;2023-01-19T07:37:19;2.00;;;0.73;;
55461;SDS011;41327;45.102;20.624;2023-01-19T07:39:45;2.10;;;0.50;;
55461;SDS011;41327;45.102;20.624;2023-01-19T07:42:13;1.67;;;1.00;;
55461;SDS011;41327;45.102;20.624;2023-01-19T07:44:41;6.53;;;2.85;;
55461;SDS011;41327;45.102;20.624;2023-01-19T07:47:07;6.95;;;3.13;;
55461;SDS011;41327;45.102;20.624;2023-01-19T07:49:35;6.78;;;2.58;;
55461;SDS011;41327;45.102;20.624;2023-01-19T07:52:01;5.05;;;1.55;;
55461;SDS011;41327;45.102;20.624;2023-01-19T07:54:36;3.60;;;1.42;;
55461;SDS011;41327;45.102;20.624;2023-01-19T07:57:02;5.95;;;1.30;;
55461;SDS011;41327;45.102;20.624;2023-01-19T07:59:28;1.30;;;0.85;;
55461;SDS011;41327;45.102;20.624;2023-01-19T08:01:55;4.63;;;1.77;;
55461;SDS011;41327;45.102;20.624;2023-01-19T08:04:23;3.63;;;1.30;;
55461;SDS011;41327;45.102;20.624;2023-01-19T08:06:52;3.88;;;1.10;;
55461;SDS011;41327;45.102;20.624;2023-01-19T08:09:18;1.92;;;0.93;;
55461;SDS011;41327;45.102;20.624;2023-01-19T08:11:44;1.85;;;0.80;;
55461;SDS011;41327;45.102;20.624;2023-01-19T08:14:09;2.40;;;1.13;;
55461;SDS011;41327;45.102;20.624;2023-01-19T08:16:35;1.73;;;1.20;;
55461;SDS011;41327;45.102;20.624;2023-01-19T08:19:01;4.90;;;1.17;;
55461;SDS011;41327;45.102;20.624;2023-01-19T08:21:27;3.72;;;1.48;;
55461;SDS011;41327;45.102;20.624;2023-01-19T08:23:53;3.00;;;1.00;;
55461;SDS011;41327;45.102;20.624;2023-01-19T08:26:20;2.33;;;0.85;;
55461;SDS011;41327;45.102;20.624;2023-01-19T08:31:19;1.02;;;0.73;;
55461;SDS011;41327;45.102;20.624;2023-01-19T08:33:45;2.75;;;1.20;;
55461;SDS011;41327;45.102;20.624;2023-01-19T08:36:11;2.35;;;1.10;;
55461;SDS011;41327;45.102;20.624;2023-01-19T08:38:36;2.15;;;1.08;;
55461;SDS011;41327;45.102;20.624;2023-01-19T08:41:05;2.38;;;1.20;;
55461;SDS011;41327;45.102;20.624;2023-01-19T08:43:30;1.75;;;1.35;;
55461;SDS011;41327;45.102;20.624;2023-01-19T08:45:56;2.47;;;0.70;;
55461;SDS011;41327;45.102;20.624;2023-01-19T08:48:21;5.03;;;2.30;;
55461;SDS011;41327;45.102;20.624;2023-01-19T08:50:48;1.67;;;1.00;;
55461;SDS011;41327;45.102;20.624;2023-01-19T08:53:14;5.00;;;1.52;;
55461;SDS011;41327;45.102;20.624;2023-01-19T08:55:40;2.60;;;1.02;;
55461;SDS011;41327;45.102;20.624;2023-01-19T08:58:06;1.58;;;0.90;;
55461;SDS011;41327;45.102;20.624;2023-01-19T09:00:35;6.45;;;1.00;;
55461;SDS011;41327;45.102;20.624;2023-01-19T09:03:10;2.88;;;0.85;;
55461;SDS011;41327;45.102;20.624;2023-01-19T09:05:36;2.42;;;0.88;;
55461;SDS011;41327;45.102;20.624;2023-01-19T09:08:04;3.00;;;0.77;;
55461;SDS011;41327;45.102;20.624;2023-01-19T09:10:33;2.47;;;0.90;;
55461;SDS011;41327;45.102;20.624;2023-01-19T09:13:24;2.63;;;0.80;;
55461;SDS011;41327;45.102;20.624;2023-01-19T09:16:16;1.85;;;1.10;;
55461;SDS011;41327;45.102;20.624;2023-01-19T09:18:42;2.38;;;0.88;;
55461;SDS011;41327;45.102;20.624;2023-01-19T09:21:09;3.15;;;1.20;;
55461;SDS011;41327;45.102;20.624;2023-01-19T09:23:34;1.67;;;0.68;;
55461;SDS011;41327;45.102;20.624;2023-01-19T09:26:00;1.50;;;0.90;;
55461;SDS011;41327;45.102;20.624;2023-01-19T09:28:27;1.02;;;0.60;;
55461;SDS011;41327;45.102;20.624;2023-01-19T09:30:53;2.22;;;0.80;;
55461;SDS011;41327;45.102;20.624;2023-01-19T09:33:19;2.00;;;0.77;;
55461;SDS011;41327;45.102;20.624;2023-01-19T09:35:45;1.83;;;0.98;;
55461;SDS011;41327;45.102;20.624;2023-01-19T09:38:12;1.70;;;0.98;;
55461;SDS011;41327;45.102;20.624;2023-01-19T09:40:43;4.28;;;1.40;;
55461;SDS011;41327;45.102;20.624;2023-01-19T09:43:12;4.15;;;1.92;;
55461;SDS011;41327;45.102;20.624;2023-01-19T09:48:23;5.10;;;1.77;;
55461;SDS011;41327;45.102;20.624;2023-01-19T09:50:53;2.00;;;1.10;;
55461;SDS011;41327;45.102;20.624;2023-01-19T09:56:14;5.18;;;2.80;;
55461;SDS011;41327;45.102;20.624;2023-01-19T09:58:41;3.75;;;2.13;;
55461;SDS011;41327;45.102;20.624;2023-01-19T10:04:05;12.00;;;6.35;;
55461;SDS011;41327;45.102;20.624;2023-01-19T10:06:37;7.95;;;4.13;;
55461;SDS011;41327;45.102;20.624;2023-01-19T10:09:06;9.75;;;3.25;;
55461;SDS011;41327;45.102;20.624;2023-01-19T10:11:54;6.95;;;2.83;;
55461;SDS011;41327;45.102;20.624;2023-01-19T10:14:28;6.10;;;3.22;;
55461;SDS011;41327;45.102;20.624;2023-01-19T10:20:00;7.68;;;3.67;;
55461;SDS011;41327;45.102;20.624;2023-01-19T10:22:27;8.07;;;5.07;;
55461;SDS011;41327;45.102;20.624;2023-01-19T10:24:57;4.25;;;2.70;;
55461;SDS011;41327;45.102;20.624;2023-01-19T10:27:30;8.35;;;3.30;;
55461;SDS011;41327;45.102;20.624;2023-01-19T10:29:57;4.22;;;1.73;;
55461;SDS011;41327;45.102;20.624;2023-01-19T10:34:50;3.10;;;1.85;;
55461;SDS011;41327;45.102;20.624;2023-01-19T10:39:45;3.25;;;1.42;;
55461;SDS011;41327;45.102;20.624;2023-01-19T10:42:16;8.07;;;3.40;;
55461;SDS011;41327;45.102;20.624;2023-01-19T10:44:45;3.28;;;2.10;;
55461;SDS011;41327;45.102;20.624;2023-01-19T10:47:18;2.78;;;1.70;;
55461;SDS011;41327;45.102;20.624;2023-01-19T10:54:59;3.30;;;1.90;;
55461;SDS011;41327;45.102;20.624;2023-01-19T10:57:27;2.97;;;1.50;;
55461;SDS011;41327;45.102;20.624;2023-01-19T10:59:57;4.50;;;1.27;;
55461;SDS011;41327;45.102;20.624;2023-01-19T11:02:24;3.95;;;2.20;;
55461;SDS011;41327;45.102;20.624;2023-01-19T11:04:55;3.60;;;2.55;;
55461;SDS011;41327;45.102;20.624;2023-01-19T11:10:09;2.10;;;1.20;;
55461;SDS011;41327;45.102;20.624;2023-01-19T11:12:38;1.15;;;1.00;;
55461;SDS011;41327;45.102;20.624;2023-01-19T11:15:11;2.83;;;1.13;;
55461;SDS011;41327;45.102;20.624;2023-01-19T11:17:39;2.88;;;1.67;;
55461;SDS011;41327;45.102;20.624;2023-01-19T11:20:16;4.15;;;2.10;;
55461;SDS011;41327;45.102;20.624;2023-01-19T11:22:46;5.35;;;3.13;;
55461;SDS011;41327;45.102;20.624;2023-01-19T11:25:19;12.30;;;7.72;;
55461;SDS011;41327;45.102;20.624;2023-01-19T11:27:47;9.73;;;6.63;;
55461;SDS011;41327;45.102;20.624;2023-01-19T11:30:19;8.30;;;5.22;;
55461;SDS011;41327;45.102;20.624;2023-01-19T11:32:47;4.68;;;3.30;;
55461;SDS011;41327;45.102;20.624;2023-01-19T11:40:37;44.40;;;32.40;;
55461;SDS011;41327;45.102;20.624;2023-01-19T11:43:02;43.75;;;22.05;;
55461;SDS011;41327;45.102;20.624;2023-01-19T11:45:28;33.88;;;21.45;;
55461;SDS011;41327;45.102;20.624;2023-01-19T11:47:54;26.98;;;20.52;;
55461;SDS011;41327;45.102;20.624;2023-01-19T11:53:00;1.80;;;0.70;;
55461;SDS011;41327;45.102;20.624;2023-01-19T11:55:32;2.13;;;0.55;;
55461;SDS011;41327;45.102;20.624;2023-01-19T11:58:02;0.68;;;0.50;;
55461;SDS011;41327;45.102;20.624;2023-01-19T12:04:36;0.73;;;0.30;;
55461;SDS011;41327;45.102;20.624;2023-01-19T12:06:45;1.23;;;0.30;;
55461;SDS011;41327;45.102;20.624;2023-01-19T12:09:23;0.75;;;0.47;;
55461;SDS011;41327;45.102;20.624;2023-01-19T12:12:02;1.20;;;0.60;;
55461;SDS011;41327;45.102;20.624;2023-01-19T12:17:30;3.55;;;1.40;;
55461;SDS011;41327;45.102;20.624;2023-01-19T12:20:00;3.83;;;2.30;;
55461;SDS011;41327;45.102;20.624;2023-01-19T12:28:41;5.07;;;2.60;;
55461;SDS011;41327;45.102;20.624;2023-01-19T12:31:08;6.65;;;3.63;;
55461;SDS011;41327;45.102;20.624;2023-01-19T12:33:35;5.65;;;3.63;;
55461;SDS011;41327;45.102;20.624;2023-01-19T12:41:26;4.75;;;3.03;;
55461;SDS011;41327;45.102;20.624;2023-01-19T12:46:34;4.43;;;3.28;;
55461;SDS011;41327;45.102;20.624;2023-01-19T12:53:03;5.57;;;2.83;;
55461;SDS011;41327;45.102;20.624;2023-01-19T13:02:49;4.40;;;3.08;;
55461;SDS011;41327;45.102;20.624;2023-01-19T13:18:47;8.75;;;5.28;;
55461;SDS011;41327;45.102;20.624;2023-01-19T13:21:34;4.72;;;3.55;;
55461;SDS011;41327;45.102;20.624;2023-01-19T13:24:18;5.53;;;3.63;;
55461;SDS011;41327;45.102;20.624;2023-01-19T13:29:19;8.70;;;5.88;;
55461;SDS011;41327;45.102;20.624;2023-01-19T13:31:54;33.90;;;15.20;;
55461;SDS011;41327;45.102;20.624;2023-01-19T13:34:27;32.65;;;15.98;;
55461;SDS011;41327;45.102;20.624;2023-01-19T13:36:55;34.33;;;15.77;;
55461;SDS011;41327;45.102;20.624;2023-01-19T13:39:27;52.10;;;23.58;;
55461;SDS011;41327;45.102;20.624;2023-01-19T13:41:58;38.08;;;18.92;;
55461;SDS011;41327;45.102;20.624;2023-01-19T13:44:34;72.30;;;32.95;;
55461;SDS011;41327;45.102;20.624;2023-01-19T13:47:18;128.68;;;49.88;;
55461;SDS011;41327;45.102;20.624;2023-01-19T13:49:46;100.30;;;39.58;;
55461;SDS011;41327;45.102;20.624;2023-01-19T13:52:22;112.80;;;47.28;;
55461;SDS011;41327;45.102;20.624;2023-01-19T13:54:50;78.60;;;31.33;;
55461;SDS011;41327;45.102;20.624;2023-01-19T14:07:59;30.70;;;15.15;;
55461;SDS011;41327;45.102;20.624;2023-01-19T14:13:14;27.55;;;12.65;;
55461;SDS011;41327;45.102;20.624;2023-01-19T14:15:40;37.97;;;18.20;;
55461;SDS011;41327;45.102;20.624;2023-01-19T14:18:57;28.25;;;12.15;;
55461;SDS011;41327;45.102;20.624;2023-01-19T14:21:05;16.30;;;8.68;;
55461;SDS011;41327;45.102;20.624;2023-01-19T14:23:40;13.85;;;6.80;;
55461;SDS011;41327;45.102;20.624;2023-01-19T14:26:52;19.98;;;9.25;;
55461;SDS011;41327;45.102;20.624;2023-01-19T14:37:33;11.23;;;5.40;;
55461;SDS011;41327;45.102;20.624;2023-01-19T14:40:01;12.70;;;5.95;;
55461;SDS011;41327;45.102;20.624;2023-01-19T14:45:26;15.20;;;8.30;;
55461;SDS011;41327;45.102;20.624;2023-01-19T14:47:58;13.70;;;7.05;;
55461;SDS011;41327;45.102;20.624;2023-01-19T14:50:26;19.98;;;11.07;;
55461;SDS011;41327;45.102;20.624;2023-01-19T14:53:03;16.02;;;8.55;;
55461;SDS011;41327;45.102;20.624;2023-01-19T14:55:45;11.05;;;6.65;;
55461;SDS011;41327;45.102;20.624;2023-01-19T14:58:12;9.18;;;4.50;;
55461;SDS011;41327;45.102;20.624;2023-01-19T15:00:42;7.22;;;5.13;;
55461;SDS011;41327;45.102;20.624;2023-01-19T15:03:08;9.05;;;4.72;;
55461;SDS011;41327;45.102;20.624;2023-01-19T15:05:37;20.48;;;10.75;;
55461;SDS011;41327;45.102;20.624;2023-01-19T15:08:03;21.00;;;12.40;;
55461;SDS011;41327;45.102;20.624;2023-01-19T15:10:29;16.00;;;7.75;;
55461;SDS011;41327;45.102;20.624;2023-01-19T15:12:55;30.63;;;16.02;;
55461;SDS011;41327;45.102;20.624;2023-01-19T15:15:29;34.92;;;18.80;;
55461;SDS011;41327;45.102;20.624;2023-01-19T15:17:57;19.98;;;11.00;;
55461;SDS011;41327;45.102;20.624;2023-01-19T15:20:25;13.75;;;8.13;;
55461;SDS011;41327;45.102;20.624;2023-01-19T15:22:51;15.15;;;8.30;;
55461;SDS011;41327;45.102;20.624;2023-01-19T15:25:17;12.75;;;6.68;;
55461;SDS011;41327;45.102;20.624;2023-01-19T15:27:44;10.65;;;6.30;;
55461;SDS011;41327;45.102;20.624;2023-01-19T15:30:20;25.98;;;14.20;;
55461;SDS011;41327;45.102;20.624;2023-01-19T15:32:48;24.20;;;12.68;;
55461;SDS011;41327;45.102;20.624;2023-01-19T15:35:17;18.35;;;9.57;;
55461;SDS011;41327;45.102;20.624;2023-01-19T15:37:44;17.08;;;8.77;;
55461;SDS011;41327;45.102;20.624;2023-01-19T15:40:10;17.88;;;10.15;;
55461;SDS011;41327;45.102;20.624;2023-01-19T15:42:36;19.83;;;10.40;;
55461;SDS011;41327;45.102;20.624;2023-01-19T15:45:02;18.25;;;8.40;;
55461;SDS011;41327;45.102;20.624;2023-01-19T15:50:24;14.32;;;8.18;;
55461;SDS011;41327;45.102;20.624;2023-01-19T15:52:50;33.50;;;14.07;;
55461;SDS011;41327;45.102;20.624;2023-01-19T15:55:15;24.42;;;12.40;;
55461;SDS011;41327;45.102;20.624;2023-01-19T15:57:41;26.30;;;11.93;;
55461;SDS011;41327;45.102;20.624;2023-01-19T16:00:07;13.27;;;7.38;;
55461;SDS011;41327;45.102;20.624;2023-01-19T16:02:34;7.60;;;4.88;;
55461;SDS011;41327;45.102;20.624;2023-01-19T16:05:00;12.52;;;7.18;;
55461;SDS011;41327;45.102;20.624;2023-01-19T16:07:27;14.95;;;7.85;;
55461;SDS011;41327;45.102;20.624;2023-01-19T16:09:52;19.27;;;7.70;;
55461;SDS011;41327;45.102;20.624;2023-01-19T16:12:18;18.63;;;8.15;;
55461;SDS011;41327;45.102;20.624;2023-01-19T16:14:43;14.10;;;6.88;;
55461;SDS011;41327;45.102;20.624;2023-01-19T16:17:09;16.95;;;8.02;;
55461;SDS011;41327;45.102;20.624;2023-01-19T16:19:34;25.45;;;11.90;;
55461;SDS011;41327;45.102;20.624;2023-01-19T16:22:00;22.10;;;10.80;;
55461;SDS011;41327;45.102;20.624;2023-01-19T16:24:25;38.80;;;17.80;;
55461;SDS011;41327;45.102;20.624;2023-01-19T16:26:51;29.63;;;14.20;;
55461;SDS011;41327;45.102;20.624;2023-01-19T16:29:16;37.92;;;16.58;;
55461;SDS011;41327;45.102;20.624;2023-01-19T16:31:42;23.52;;;12.57;;
55461;SDS011;41327;45.102;20.624;2023-01-19T16:34:09;27.85;;;15.32;;
55461;SDS011;41327;45.102;20.624;2023-01-19T16:36:35;35.72;;;16.98;;
55461;SDS011;41327;45.102;20.624;2023-01-19T16:39:05;26.92;;;15.35;;
55461;SDS011;41327;45.102;20.624;2023-01-19T16:41:33;30.75;;;15.88;;
55461;SDS011;41327;45.102;20.624;2023-01-19T16:43:59;22.40;;;12.68;;
55461;SDS011;41327;45.102;20.624;2023-01-19T16:46:26;21.50;;;12.40;;
55461;SDS011;41327;45.102;20.624;2023-01-19T16:48:57;24.88;;;12.32;;
55461;SDS011;41327;45.102;20.624;2023-01-19T16:51:23;25.83;;;13.55;;
55461;SDS011;41327;45.102;20.624;2023-01-19T16:53:49;28.00;;;12.75;;
55461;SDS011;41327;45.102;20.624;2023-01-19T16:56:15;27.85;;;12.90;;
55461;SDS011;41327;45.102;20.624;2023-01-19T16:58:41;24.25;;;11.65;;
55461;SDS011;41327;45.102;20.624;2023-01-19T17:03:42;30.63;;;15.48;;
55461;SDS011;41327;45.102;20.624;2023-01-19T17:06:09;37.30;;;18.27;;
55461;SDS011;41327;45.102;20.624;2023-01-19T17:08:36;35.28;;;17.50;;